Efogi Airport

EFG · Northern Province, 巴布亚新几内亚

此METAR来自2022年8月12日 19:00. 最近的
罗盘
风向 的 风向 170° Efogi Airport 17/35
风向 到 风: 10 kt, 阵阵 20 kt, 3 beaufort

10 kt

改变
0 1.000 2.000 3.000 4.000 5.000
FEW 2.500 ft
BKN 5.000 ft
METAR AYPY 120900Z 17010G20KT 9999 FEW025 BKN050 26/23 Q1009

METAR Efogi Airport - EFG/EFG

Efogi Airport是Efogi,巴布亚新几内亚中的小机场。 该机场有一条跑道: 17/35. 该领域的国际民航组织标志是EFG 它的国际航空运输协会代码是EFG.

这份报告是针对2022年8月12日 19:00, 当地时间在傑克遜斯國際機場进行的。

机场观察

风向为170°,速度为10 kt。 已测得20 kt的阵风。

可见度为10 km 或者更多。

有几云在2.500 ft的高度 和 碎云在5.000 ft的高度。 破损或更高的上限为5.000 ft。

温度和风寒是26 °C。 露点为23 °C,相对湿度为84%。 海平面上的气压为1009 hPa (QNH)。

白天

今天,太阳从05:52升起,在18:04降落。 这适用于Efogi Airport,世界夏令时可能有所不同。 当地时间与世界标准时间之间的时差为+10 小时。 夏令时目前正在进行中。

公司介绍

我们没有关于这个机场的公司信息。

体会

到Vliegles.nl去找飞行课程,跳伞和其他飞行体验。 浏览页面,了解Efogi Airport附近所有可用的活动。 你也可以使用搜索功能来寻找你所在地附近的特定飞行课程、跳伞或其他飞行体验。

跑道

Id 标题 侧风 逆风 侧风 %
17/35 170°-350° 10-20 kt 0 %

逆风成分最大的方向会被突出显示,并用于横风计算。 这并不一定意味着这个方向在使用。

乌云

2.500 ft FEW 几云
5.000 ft BKN 碎云

温度 & 天气

温度 26 °C
露点 23 °C
相对湿度 84%
Kp-index 0 (0-9)

白天

日出
06:22
中午
12:16
日落
18:09

小工具

你想在你的网站上有一个关于Efogi Airport的当前航空天气(METAR)的小部件吗?

</> 显示HTML代码

我们和第三方通过cookies跟踪您在我们网站上的上网行为。如果您继续,我们认为您同意我们的cookie政策。 了解更多